Time;durP1;ratioP1;P1;durP2;ratioP2;P2;SDS_P1;SDS_P2;PMS_P1;PMS_P2;Temp;Humidity;BMP_temperature;BMP_pressure;BME280_temperature;BME280_humidity;BME280_pressure;Samples;Min_cycle;Max_cycle;Signal;HPM_P1;HPM_P2
2022/02/14 00:01:10;;;;;;;7.75;4.50;;;8.50;99.90;;;;;;5083433;28;20097;-72
2022/02/14 00:03:35;;;;;;;6.93;4.25;;;8.50;99.90;;;;;;5068858;28;20044;-72
2022/02/14 00:06:01;;;;;;;7.95;4.10;;;8.50;99.90;;;;;;5076356;28;20053;-72
2022/02/14 00:08:26;;;;;;;8.90;3.70;;;8.50;99.90;;;;;;5079496;28;20044;-72
2022/02/14 00:10:52;;;;;;;5.70;4.10;;;8.40;99.90;;;;;;5074036;28;20088;-72
2022/02/14 00:13:17;;;;;;;5.75;4.47;;;8.50;99.90;;;;;;5068242;28;20512;-72
2022/02/14 00:15:43;;;;;;;6.72;4.10;;;8.50;99.90;;;;;;5077634;28;20844;-73
2022/02/14 00:18:09;;;;;;;7.70;3.95;;;8.40;99.90;;;;;;5069023;28;20169;-72
2022/02/14 00:20:35;;;;;;;5.32;3.95;;;8.50;99.90;;;;;;5065513;28;20048;-72
2022/02/14 00:23:00;;;;;;;6.38;4.03;;;8.50;99.90;;;;;;5073095;28;20037;-72
2022/02/14 00:25:26;;;;;;;8.20;4.30;;;8.60;99.90;;;;;;5054390;28;20032;-72
2022/02/14 00:27:52;;;;;;;8.15;4.20;;;8.50;99.90;;;;;;5071466;28;20148;-72
2022/02/14 00:30:18;;;;;;;8.63;4.10;;;8.60;99.90;;;;;;5070982;28;20051;-72
2022/02/14 00:32:43;;;;;;;7.68;4.20;;;8.60;99.90;;;;;;5085247;28;20048;-72
2022/02/14 00:35:13;;;;;;;6.65;3.85;;;8.60;99.90;;;;;;5084463;28;20024;-72
2022/02/14 00:37:38;;;;;;;6.63;4.18;;;8.60;99.90;;;;;;5085462;28;20146;-72
2022/02/14 00:40:05;;;;;;;5.47;3.80;;;8.60;99.90;;;;;;5084475;28;20132;-72
2022/02/14 00:42:30;;;;;;;6.05;3.65;;;8.70;99.90;;;;;;5059810;28;20033;-72
2022/02/14 00:44:56;;;;;;;10.68;4.60;;;8.70;99.90;;;;;;5086731;28;20105;-72
2022/02/14 00:47:21;;;;;;;8.02;3.97;;;8.80;99.90;;;;;;5070846;28;20032;-71
2022/02/14 00:49:47;;;;;;;8.63;3.83;;;8.80;99.90;;;;;;5070472;28;20123;-72
2022/02/14 00:52:12;;;;;;;6.30;3.67;;;8.80;99.90;;;;;;5070463;28;20722;-72
2022/02/14 00:54:38;;;;;;;7.90;4.45;;;8.90;99.90;;;;;;5067437;28;20487;-72
2022/02/14 00:57:04;;;;;;;10.43;4.47;;;8.90;99.90;;;;;;5067977;28;20131;-72
2022/02/14 00:59:30;;;;;;;6.32;3.95;;;8.90;99.90;;;;;;5068503;28;20060;-72
2022/02/14 01:01:55;;;;;;;9.68;3.95;;;8.90;99.90;;;;;;5083469;28;20382;-72
2022/02/14 01:04:21;;;;;;;5.50;3.85;;;8.90;99.90;;;;;;5067725;28;20047;-72
2022/02/14 01:06:46;;;;;;;6.20;3.85;;;8.90;99.90;;;;;;5069071;28;20080;-72
2022/02/14 01:09:12;;;;;;;7.15;3.67;;;8.90;99.90;;;;;;5046709;28;20048;-72
2022/02/14 01:11:39;;;;;;;5.50;3.83;;;8.90;99.90;;;;;;5069546;28;20056;-72
2022/02/14 01:14:06;;;;;;;7.78;4.00;;;9.00;99.90;;;;;;5068216;28;20045;-72
2022/02/14 01:16:31;;;;;;;6.30;2.85;;;9.00;99.90;;;;;;5069651;28;20047;-72
2022/02/14 01:18:57;;;;;;;8.45;4.45;;;9.10;99.90;;;;;;5066933;28;20040;-72
2022/02/14 01:21:22;;;;;;;7.80;4.03;;;9.00;99.90;;;;;;5069313;28;20045;-72
2022/02/14 01:23:48;;;;;;;7.75;3.75;;;9.00;99.90;;;;;;5084997;28;20033;-72
2022/02/14 01:26:13;;;;;;;6.93;3.50;;;8.90;99.90;;;;;;5070410;28;20044;-72
2022/02/14 01:28:39;;;;;;;6.65;3.75;;;8.80;99.90;;;;;;5068493;28;20044;-72
2022/02/14 01:31:05;;;;;;;8.05;3.83;;;8.80;99.90;;;;;;5080911;28;20041;-72
2022/02/14 01:33:31;;;;;;;8.48;4.22;;;8.80;99.90;;;;;;5068342;28;20032;-72
2022/02/14 01:35:56;;;;;;;6.88;3.70;;;8.70;99.90;;;;;;5069498;28;20517;-72
2022/02/14 01:38:22;;;;;;;7.72;3.90;;;8.60;99.90;;;;;;5068094;28;20041;-72
2022/02/14 01:40:47;;;;;;;6.10;3.85;;;8.60;99.90;;;;;;5049739;28;20045;-72
2022/02/14 01:43:15;;;;;;;6.10;3.78;;;8.50;99.90;;;;;;5069352;28;20047;-72
2022/02/14 01:45:42;;;;;;;9.02;4.10;;;8.50;99.90;;;;;;5068618;28;20045;-72
2022/02/14 01:48:08;;;;;;;9.38;4.00;;;8.50;99.90;;;;;;5067255;28;20072;-72
2022/02/14 01:50:34;;;;;;;7.38;3.97;;;8.30;99.90;;;;;;5086335;28;20071;-72
2022/02/14 01:53:00;;;;;;;7.20;4.03;;;8.30;99.90;;;;;;5068593;28;20041;-72
2022/02/14 01:55:26;;;;;;;8.20;4.10;;;8.30;99.90;;;;;;5068394;28;20044;-72
2022/02/14 01:57:51;;;;;;;7.20;4.03;;;8.30;99.90;;;;;;5063305;28;20120;-72
2022/02/14 02:00:19;;;;;;;8.73;3.83;;;8.30;99.90;;;;;;5074183;28;20123;-72
2022/02/14 02:02:45;;;;;;;8.35;4.20;;;8.30;99.90;;;;;;5053285;28;20052;-72
2022/02/14 02:05:11;;;;;;;7.10;3.92;;;8.20;99.90;;;;;;5064188;28;20044;-72
2022/02/14 02:07:37;;;;;;;5.70;3.95;;;8.20;99.90;;;;;;5069961;28;20056;-72
2022/02/14 02:10:07;;;;;;;9.52;4.45;;;8.10;99.90;;;;;;5069323;28;20075;-72
2022/02/14 02:12:32;;;;;;;7.82;4.03;;;8.10;99.90;;;;;;5068962;28;20040;-72
2022/02/14 02:15:05;;;;;;;8.05;4.18;;;8.10;99.90;;;;;;5056070;28;20118;-72
2022/02/14 02:17:35;;;;;;;7.32;4.20;;;8.10;99.90;;;;;;5076134;28;20485;-72
2022/02/14 02:20:07;;;;;;;6.32;3.63;;;8.10;99.90;;;;;;5059114;28;20048;-71
2022/02/14 02:22:33;;;;;;;7.20;3.63;;;8.20;99.90;;;;;;5065487;28;20025;-71
2022/02/14 02:24:59;;;;;;;8.57;4.10;;;8.30;99.90;;;;;;5082120;28;20481;-71
2022/02/14 02:27:26;;;;;;;7.78;3.83;;;8.30;99.90;;;;;;5049106;28;20384;-71
2022/02/14 02:29:56;;;;;;;9.35;4.10;;;8.30;99.90;;;;;;5084755;28;20514;-71
2022/02/14 02:32:23;;;;;;;6.95;3.63;;;8.40;99.90;;;;;;5067701;28;20048;-71
2022/02/14 02:34:49;;;;;;;7.68;3.65;;;8.50;99.90;;;;;;5049569;28;20045;-72
2022/02/14 02:37:16;;;;;;;7.50;3.85;;;8.60;99.90;;;;;;5035341;28;20056;-71
2022/02/14 02:39:42;;;;;;;9.18;3.92;;;8.60;99.90;;;;;;5055478;28;20040;-72
2022/02/14 02:42:10;;;;;;;5.85;3.22;;;8.60;99.90;;;;;;5057749;28;20032;-71
2022/02/14 02:44:37;;;;;;;7.57;3.75;;;8.70;99.90;;;;;;5057796;28;20068;-71
2022/02/14 02:47:05;;;;;;;10.23;3.80;;;8.70;99.90;;;;;;5066043;28;20051;-71
2022/02/14 02:49:30;;;;;;;6.57;3.58;;;8.70;99.90;;;;;;5075088;28;20045;-71
2022/02/14 02:51:57;;;;;;;7.72;3.67;;;8.70;99.90;;;;;;5054809;28;20048;-72
2022/02/14 02:54:24;;;;;;;5.57;4.07;;;8.70;99.90;;;;;;5052293;28;20436;-72
2022/02/14 02:56:51;;;;;;;7.28;3.78;;;8.80;99.90;;;;;;5060352;28;20098;-71
2022/02/14 02:59:17;;;;;;;6.25;3.22;;;8.70;99.90;;;;;;5087331;28;20037;-71
2022/02/14 03:01:43;;;;;;;6.05;2.90;;;8.80;99.90;;;;;;5064116;28;20117;-71
2022/02/14 03:04:11;;;;;;;8.65;3.75;;;8.80;99.90;;;;;;5088713;28;20127;-71
2022/02/14 03:06:37;;;;;;;7.13;3.42;;;8.80;99.90;;;;;;5052552;28;20080;-71
2022/02/14 03:09:04;;;;;;;7.40;3.85;;;8.70;99.90;;;;;;5069852;28;20091;-71
2022/02/14 03:11:29;;;;;;;7.63;4.22;;;8.70;99.90;;;;;;5075246;28;20032;-71
2022/02/14 03:13:55;;;;;;;5.90;3.58;;;8.70;99.90;;;;;;5069275;28;20120;-71
2022/02/14 03:16:21;;;;;;;5.75;3.45;;;8.60;99.90;;;;;;5053135;28;20658;-71
2022/02/14 03:18:47;;;;;;;7.28;3.88;;;8.60;99.90;;;;;;5076050;28;20072;-71
2022/02/14 03:21:14;;;;;;;5.90;3.38;;;8.60;99.90;;;;;;5089028;28;20450;-71
2022/02/14 03:23:41;;;;;;;5.28;3.53;;;8.50;99.90;;;;;;5065439;28;20037;-72
2022/02/14 03:26:07;;;;;;;7.80;4.25;;;8.50;99.90;;;;;;5061388;28;20727;-72
2022/02/14 03:28:33;;;;;;;7.90;3.55;;;8.50;99.90;;;;;;5085644;28;20040;-72
2022/02/14 03:31:00;;;;;;;6.22;3.22;;;8.50;99.90;;;;;;5066597;28;20555;-72
2022/02/14 03:33:26;;;;;;;6.60;3.50;;;8.50;99.90;;;;;;5055542;28;20033;-72
2022/02/14 03:35:52;;;;;;;6.80;3.55;;;8.50;99.90;;;;;;5071081;28;20569;-72
2022/02/14 03:38:18;;;;;;;7.60;3.40;;;8.50;99.90;;;;;;5086044;28;20425;-72
2022/02/14 03:40:43;;;;;;;6.18;3.75;;;8.50;99.90;;;;;;5071377;28;20199;-72
2022/02/14 03:43:12;;;;;;;7.30;2.92;;;8.60;99.90;;;;;;5071555;28;20436;-72
2022/02/14 03:45:40;;;;;;;6.40;3.40;;;8.60;99.90;;;;;;5069369;28;20063;-72
2022/02/14 03:48:06;;;;;;;7.53;3.70;;;8.60;99.90;;;;;;5069426;28;20086;-72
2022/02/14 03:50:32;;;;;;;7.57;3.47;;;8.70;99.90;;;;;;5072508;28;20054;-72
2022/02/14 03:52:57;;;;;;;8.82;3.78;;;8.70;99.90;;;;;;5070041;28;20097;-72
2022/02/14 03:55:23;;;;;;;7.20;3.35;;;8.80;99.90;;;;;;5089459;28;20036;-72
2022/02/14 03:57:51;;;;;;;6.93;3.47;;;8.70;99.90;;;;;;5070373;28;20032;-72
2022/02/14 04:00:19;;;;;;;5.78;3.05;;;8.70;99.90;;;;;;5071781;28;20090;-72
2022/02/14 04:02:45;;;;;;;7.90;3.15;;;8.70;99.90;;;;;;5055075;28;20033;-72
2022/02/14 04:05:13;;;;;;;8.20;3.35;;;8.60;99.90;;;;;;5071094;28;20035;-72
2022/02/14 04:07:39;;;;;;;5.68;3.50;;;8.60;99.90;;;;;;5072381;28;20433;-72
2022/02/14 04:10:07;;;;;;;6.18;3.20;;;8.60;99.90;;;;;;5071794;28;20881;-72
2022/02/14 04:12:34;;;;;;;9.95;3.78;;;8.60;99.90;;;;;;5070920;28;20032;-72
2022/02/14 04:15:00;;;;;;;7.28;3.75;;;8.60;99.90;;;;;;5062036;28;20047;-72
2022/02/14 04:17:25;;;;;;;7.05;3.17;;;8.60;99.90;;;;;;5088338;28;20036;-72
2022/02/14 04:19:52;;;;;;;5.38;3.22;;;8.60;99.90;;;;;;5071569;28;20043;-73
2022/02/14 04:22:18;;;;;;;5.88;3.22;;;8.70;99.90;;;;;;5077420;22;20210;-72
2022/02/14 04:24:44;;;;;;;5.75;3.05;;;8.60;99.90;;;;;;5066380;28;20081;-72
2022/02/14 04:27:09;;;;;;;8.20;3.72;;;8.50;99.90;;;;;;5035209;28;20041;-72
2022/02/14 04:29:35;;;;;;;7.82;3.17;;;8.50;99.90;;;;;;5028176;28;20037;-72
2022/02/14 04:32:01;;;;;;;4.80;2.70;;;8.50;99.90;;;;;;5048924;28;20499;-72
2022/02/14 04:34:26;;;;;;;8.60;2.90;;;8.50;99.90;;;;;;5031493;28;20045;-72
2022/02/14 04:36:52;;;;;;;7.03;2.95;;;8.50;99.90;;;;;;5039669;28;20046;-72
2022/02/14 04:39:18;;;;;;;6.97;3.28;;;8.60;99.90;;;;;;5046074;28;20095;-72
2022/02/14 04:41:44;;;;;;;9.68;3.42;;;8.60;99.90;;;;;;5015908;28;20042;-72
2022/02/14 04:44:11;;;;;;;7.25;3.10;;;8.60;99.90;;;;;;5040181;28;20069;-72
2022/02/14 04:46:37;;;;;;;5.65;3.42;;;8.50;99.90;;;;;;5007252;28;20049;-72
2022/02/14 04:49:04;;;;;;;7.50;3.30;;;8.50;99.90;;;;;;5046802;28;20057;-72
2022/02/14 04:51:30;;;;;;;4.68;3.03;;;8.60;99.90;;;;;;5047770;28;20451;-72
2022/02/14 04:53:55;;;;;;;4.63;2.90;;;8.50;99.90;;;;;;5036595;28;20084;-72
2022/02/14 04:56:21;;;;;;;6.18;3.00;;;8.60;99.90;;;;;;5044878;28;20037;-72
2022/02/14 04:58:48;;;;;;;5.55;3.25;;;8.60;99.90;;;;;;5047006;28;20037;-72
2022/02/14 05:01:14;;;;;;;9.82;3.13;;;8.60;99.90;;;;;;5010838;28;20042;-72
2022/02/14 05:03:40;;;;;;;6.32;2.80;;;8.60;99.90;;;;;;5015060;28;20038;-72
2022/02/14 05:06:06;;;;;;;6.47;2.90;;;8.60;99.90;;;;;;5046104;28;20068;-72
2022/02/14 05:08:32;;;;;;;6.65;3.10;;;8.70;99.90;;;;;;5038187;28;20050;-72
2022/02/14 05:10:58;;;;;;;6.38;2.60;;;8.80;99.90;;;;;;4998704;28;20041;-72
2022/02/14 05:13:24;;;;;;;6.25;2.60;;;8.80;99.90;;;;;;5010837;28;20064;-72
2022/02/14 05:15:49;;;;;;;5.72;2.70;;;8.90;99.90;;;;;;5047290;28;20356;-72
2022/02/14 05:18:15;;;;;;;5.13;2.58;;;8.90;99.90;;;;;;5047729;28;20120;-72
2022/02/14 05:20:41;;;;;;;4.68;2.90;;;8.90;99.90;;;;;;5009597;28;20061;-72
2022/02/14 05:23:07;;;;;;;7.70;3.35;;;9.00;99.90;;;;;;5020161;28;20053;-72
2022/02/14 05:25:32;;;;;;;8.40;2.83;;;9.00;99.90;;;;;;5013303;28;20387;-72
2022/02/14 05:27:58;;;;;;;6.85;2.78;;;9.10;99.90;;;;;;5038295;28;20086;-72
2022/02/14 05:30:25;;;;;;;7.05;2.78;;;9.10;99.90;;;;;;5051067;28;20045;-72
2022/02/14 05:32:50;;;;;;;7.95;2.65;;;9.10;99.90;;;;;;5013956;28;20048;-72
2022/02/14 05:35:17;;;;;;;5.78;2.72;;;9.10;99.90;;;;;;5047101;28;20049;-72
2022/02/14 05:37:43;;;;;;;4.57;2.58;;;9.20;99.90;;;;;;5040771;28;20056;-72
2022/02/14 05:40:08;;;;;;;6.05;2.63;;;9.10;99.90;;;;;;5046514;28;20067;-72
2022/02/14 05:42:34;;;;;;;7.22;2.83;;;9.20;99.90;;;;;;5013719;28;20037;-72
2022/02/14 05:45:00;;;;;;;5.78;2.58;;;9.10;99.90;;;;;;5046571;28;20124;-72
2022/02/14 05:47:25;;;;;;;7.55;3.13;;;9.20;99.90;;;;;;5013913;28;20406;-72
2022/02/14 05:49:51;;;;;;;5.85;2.63;;;9.20;99.90;;;;;;5030043;28;20038;-72
2022/02/14 05:52:17;;;;;;;10.27;2.97;;;9.20;99.90;;;;;;5041646;28;20041;-72
2022/02/14 05:54:42;;;;;;;6.60;2.80;;;9.30;99.90;;;;;;5046361;28;20048;-72
2022/02/14 05:57:10;;;;;;;8.18;2.80;;;9.30;99.90;;;;;;5028586;28;20041;-72
2022/02/14 05:59:35;;;;;;;5.55;2.67;;;9.40;99.90;;;;;;5036913;28;20761;-72
2022/02/14 06:02:02;;;;;;;4.97;2.35;;;9.40;99.90;;;;;;5046687;28;20043;-72
2022/02/14 06:04:30;;;;;;;6.88;2.80;;;9.40;99.90;;;;;;5046378;28;20124;-72
2022/02/14 06:06:56;;;;;;;7.28;2.60;;;9.40;99.90;;;;;;5043396;28;20037;-72
2022/02/14 06:09:26;;;;;;;5.40;2.38;;;9.40;99.90;;;;;;5041850;28;20060;-72
2022/02/14 06:11:53;;;;;;;5.15;2.33;;;9.40;99.90;;;;;;5015421;28;20037;-72
2022/02/14 06:14:19;;;;;;;5.95;2.60;;;9.50;99.90;;;;;;5046023;28;20116;-72
2022/02/14 06:16:44;;;;;;;6.70;2.60;;;9.50;99.90;;;;;;5045982;28;20128;-72
2022/02/14 06:19:10;;;;;;;4.63;2.30;;;9.50;99.90;;;;;;5046660;28;20144;-72
2022/02/14 06:21:35;;;;;;;3.55;2.03;;;9.50;99.90;;;;;;5043829;28;20120;-72
2022/02/14 06:24:01;;;;;;;7.22;2.92;;;9.50;99.90;;;;;;5034591;28;20104;-72
2022/02/14 06:26:29;;;;;;;4.57;2.30;;;9.50;99.90;;;;;;5011381;28;20042;-72
2022/02/14 06:28:54;;;;;;;7.03;2.80;;;9.50;99.90;;;;;;5013771;28;20417;-72
2022/02/14 06:31:21;;;;;;;4.85;2.33;;;9.50;99.90;;;;;;5045813;28;20046;-72
2022/02/14 06:33:46;;;;;;;4.20;2.03;;;9.50;99.90;;;;;;5046232;28;20051;-72
2022/02/14 06:36:12;;;;;;;4.07;2.88;;;9.60;99.90;;;;;;5046208;28;21074;-72
2022/02/14 06:38:37;;;;;;;4.28;2.55;;;9.60;99.90;;;;;;5046909;28;20055;-72
2022/02/14 06:41:03;;;;;;;5.82;2.05;;;9.50;99.90;;;;;;5013177;28;20037;-72
2022/02/14 06:43:29;;;;;;;4.53;2.13;;;9.60;99.90;;;;;;5044923;28;20548;-72
2022/02/14 06:45:54;;;;;;;3.05;2.28;;;9.60;99.90;;;;;;5013132;28;20079;-72
2022/02/14 06:48:20;;;;;;;6.82;2.40;;;9.60;99.90;;;;;;5046119;28;20045;-72
2022/02/14 06:50:45;;;;;;;6.15;2.33;;;9.60;99.90;;;;;;5045890;28;20079;-72
2022/02/14 06:53:11;;;;;;;4.45;2.38;;;9.60;99.90;;;;;;5030740;28;20353;-72
2022/02/14 06:55:37;;;;;;;6.47;2.25;;;9.60;99.90;;;;;;5045520;28;20058;-72
2022/02/14 06:58:03;;;;;;;5.32;2.35;;;9.70;99.90;;;;;;5046065;28;20049;-72
2022/02/14 07:00:29;;;;;;;6.35;2.45;;;9.70;99.90;;;;;;5044764;28;20049;-72
2022/02/14 07:02:55;;;;;;;5.07;2.20;;;9.70;99.90;;;;;;5045894;28;20046;-72
2022/02/14 07:05:22;;;;;;;5.32;2.63;;;9.60;99.90;;;;;;5045705;28;20394;-72
2022/02/14 07:07:49;;;;;;;3.38;2.10;;;9.60;99.90;;;;;;5041757;28;20050;-72
2022/02/14 07:10:15;;;;;;;5.97;2.22;;;9.70;99.90;;;;;;5040180;28;20395;-72
2022/02/14 07:12:42;;;;;;;4.72;2.30;;;9.70;99.90;;;;;;5041415;28;20048;-72
2022/02/14 07:15:09;;;;;;;4.95;2.25;;;9.70;99.90;;;;;;5007554;28;20045;-72
2022/02/14 07:17:35;;;;;;;5.05;2.08;;;9.70;99.90;;;;;;5011507;28;20045;-72
2022/02/14 07:20:01;;;;;;;4.63;1.95;;;9.80;99.90;;;;;;5046173;28;20042;-72
2022/02/14 07:22:27;;;;;;;4.18;2.22;;;9.80;99.90;;;;;;5046015;28;20411;-72
2022/02/14 07:24:53;;;;;;;4.43;1.80;;;9.80;99.90;;;;;;5029473;28;20050;-72
2022/02/14 07:27:18;;;;;;;3.47;1.98;;;9.80;99.90;;;;;;5028281;28;20053;-72
2022/02/14 07:29:44;;;;;;;3.03;2.13;;;9.80;99.90;;;;;;5046021;28;20049;-72
2022/02/14 07:32:09;;;;;;;4.88;2.17;;;9.80;99.90;;;;;;5046248;28;20068;-72
2022/02/14 07:34:35;;;;;;;3.55;1.70;;;9.90;99.90;;;;;;5012775;28;20041;-72
2022/02/14 07:37:02;;;;;;;4.70;2.90;;;9.90;99.90;;;;;;5046224;28;20034;-72
2022/02/14 07:39:33;;;;;;;2.22;1.98;;;9.90;99.90;;;;;;5033308;28;21788;-72
2022/02/14 07:42:00;;;;;;;4.25;2.22;;;9.90;99.90;;;;;;5034013;28;20447;-72
2022/02/14 07:44:26;;;;;;;4.78;2.20;;;10.00;99.90;;;;;;5037422;28;20037;-72
2022/02/14 07:46:52;;;;;;;4.45;2.33;;;10.00;99.90;;;;;;5012387;28;20124;-72
2022/02/14 07:49:20;;;;;;;4.03;1.63;;;10.00;99.90;;;;;;5015973;28;20588;-71
2022/02/14 07:51:45;;;;;;;4.03;2.42;;;10.00;99.90;;;;;;5041077;28;20056;-72
2022/02/14 07:54:11;;;;;;;4.03;2.17;;;10.00;99.90;;;;;;5033070;28;20033;-72
2022/02/14 07:56:37;;;;;;;3.17;2.00;;;10.10;99.90;;;;;;5032412;28;20083;-72
2022/02/14 07:59:03;;;;;;;7.43;2.58;;;10.10;99.90;;;;;;5016165;28;20128;-72
2022/02/14 08:01:29;;;;;;;3.28;2.22;;;10.00;99.90;;;;;;5025583;28;20051;-72
2022/02/14 08:03:54;;;;;;;2.33;1.85;;;10.00;99.90;;;;;;4999426;28;20053;-72
2022/02/14 08:06:20;;;;;;;3.80;2.42;;;10.10;99.90;;;;;;5037734;28;20073;-72
2022/02/14 08:08:46;;;;;;;5.38;2.22;;;10.10;99.90;;;;;;5045514;28;20164;-72
2022/02/14 08:11:11;;;;;;;6.55;2.70;;;10.10;99.90;;;;;;5024729;28;20095;-72
2022/02/14 08:13:37;;;;;;;4.70;2.30;;;10.00;99.90;;;;;;5035407;28;20033;-72
2022/02/14 08:16:02;;;;;;;3.22;1.75;;;10.00;99.90;;;;;;5023980;28;20077;-72
2022/02/14 08:18:28;;;;;;;7.80;2.17;;;10.00;99.90;;;;;;5009547;28;21438;-72
2022/02/14 08:20:54;;;;;;;6.10;2.00;;;10.00;99.90;;;;;;5012677;28;20041;-73
2022/02/14 08:23:19;;;;;;;3.25;2.40;;;10.00;99.90;;;;;;5019772;28;20487;-72
2022/02/14 08:25:45;;;;;;;5.57;2.55;;;9.90;99.90;;;;;;5039533;28;20100;-73
2022/02/14 08:28:10;;;;;;;4.15;2.70;;;10.00;99.90;;;;;;5027152;28;20042;-72
2022/02/14 08:30:36;;;;;;;4.30;1.92;;;9.90;99.90;;;;;;5039131;28;20049;-72
2022/02/14 08:33:02;;;;;;;3.78;2.10;;;9.90;99.90;;;;;;5039945;28;20092;-72
2022/02/14 08:35:29;;;;;;;3.60;2.35;;;9.90;99.90;;;;;;5024582;28;20073;-72
2022/02/14 08:37:56;;;;;;;4.13;2.30;;;9.90;99.90;;;;;;5040208;28;20043;-72
2022/02/14 08:40:22;;;;;;;4.82;2.30;;;9.90;99.90;;;;;;5043213;28;20042;-72
2022/02/14 08:42:47;;;;;;;6.72;2.65;;;9.90;99.90;;;;;;5013903;28;20036;-72
2022/02/14 08:45:13;;;;;;;3.80;2.40;;;;;;;;;;5021770;28;20793;-71
2022/02/14 08:47:40;;;;;;;4.38;2.38;;;9.80;99.90;;;;;;5017610;28;20033;-72
2022/02/14 08:50:06;;;;;;;6.63;2.85;;;9.80;99.90;;;;;;5001963;28;20083;-71
2022/02/14 08:52:32;;;;;;;3.03;2.10;;;9.90;99.90;;;;;;5027839;28;20072;-72
2022/02/14 08:54:57;;;;;;;5.22;2.63;;;9.80;99.90;;;;;;5015440;28;20069;-72
2022/02/14 08:57:23;;;;;;;5.07;2.38;;;9.90;99.90;;;;;;5033579;28;20037;-72
2022/02/14 08:59:50;;;;;;;5.07;2.22;;;9.80;99.90;;;;;;4997747;28;20046;-72
2022/02/14 09:02:16;;;;;;;4.47;2.47;;;9.80;99.90;;;;;;5019074;28;20041;-72
2022/02/14 09:04:41;;;;;;;3.78;2.50;;;9.90;99.90;;;;;;5019018;28;20091;-72
2022/02/14 09:07:07;;;;;;;4.95;2.50;;;9.90;99.90;;;;;;5028774;28;20533;-72
2022/02/14 09:09:33;;;;;;;4.25;2.40;;;9.90;99.90;;;;;;5014126;28;20065;-72
2022/02/14 09:12:02;;;;;;;2.65;2.05;;;9.90;99.90;;;;;;5017541;28;20034;-72
2022/02/14 09:14:28;;;;;;;4.95;2.50;;;9.90;99.90;;;;;;5002539;28;20824;-72
2022/02/14 09:16:53;;;;;;;3.78;2.50;;;9.80;99.90;;;;;;5028010;28;20144;-72
2022/02/14 09:19:19;;;;;;;3.47;2.20;;;9.90;99.90;;;;;;5014076;28;20567;-72
2022/02/14 09:21:45;;;;;;;2.55;2.13;;;9.90;99.90;;;;;;5029048;28;20060;-72
2022/02/14 09:24:12;;;;;;;4.97;2.40;;;9.80;99.90;;;;;;5017477;28;20491;-72
2022/02/14 09:26:43;;;;;;;3.38;2.67;;;9.70;99.90;;;;;;5020734;28;20128;-72
2022/02/14 09:29:10;;;;;;;4.70;2.80;;;9.70;99.90;;;;;;5014563;28;20080;-72
2022/02/14 09:31:37;;;;;;;5.10;2.90;;;9.60;99.90;;;;;;5017309;28;20087;-72
2022/02/14 09:34:06;;;;;;;5.53;2.92;;;9.40;99.90;;;;;;4996337;28;20033;-73
2022/02/14 09:36:33;;;;;;;4.45;3.05;;;9.30;99.90;;;;;;5017150;28;20050;-73
2022/02/14 09:38:58;;;;;;;6.60;3.58;;;9.30;99.90;;;;;;5019220;28;20523;-72
2022/02/14 09:41:25;;;;;;;5.28;3.42;;;9.30;99.90;;;;;;5019183;28;20064;-73
2022/02/14 09:43:51;;;;;;;4.25;3.85;;;9.30;99.90;;;;;;5028001;28;20427;-73
2022/02/14 09:46:17;;;;;;;4.25;3.55;;;9.20;99.90;;;;;;5021680;28;20110;-73
2022/02/14 09:48:44;;;;;;;4.75;3.13;;;9.20;99.90;;;;;;5028866;28;20148;-73
2022/02/14 09:51:11;;;;;;;5.40;3.33;;;9.20;99.90;;;;;;5018094;28;20032;-73
2022/02/14 09:53:39;;;;;;;3.95;2.75;;;9.20;99.90;;;;;;5016859;28;20033;-73
2022/02/14 09:56:05;;;;;;;3.55;3.15;;;9.20;99.90;;;;;;5015058;28;20068;-73
2022/02/14 09:58:30;;;;;;;4.10;3.00;;;9.20;99.90;;;;;;5016980;28;20506;-73
2022/02/14 10:00:56;;;;;;;3.60;2.88;;;9.30;99.90;;;;;;5033368;28;20371;-73
2022/02/14 10:03:23;;;;;;;3.60;3.30;;;9.40;99.90;;;;;;5014089;28;20049;-73
2022/02/14 10:05:52;;;;;;;3.60;3.30;;;9.40;99.90;;;;;;5016888;28;20423;-73
2022/02/14 10:08:24;;;;;;;6.15;3.40;;;9.50;99.90;;;;;;5037800;28;20069;-72
2022/02/14 10:10:51;;;;;;;3.72;3.42;;;9.60;99.90;;;;;;4999762;28;20068;-73
2022/02/14 10:13:30;;;;;;;5.38;3.13;;;9.60;99.90;;;;;;5029269;28;20065;-72
2022/02/14 10:15:55;;;;;;;4.60;3.42;;;9.70;99.90;;;;;;5013805;28;20575;-72
2022/02/14 10:18:33;;;;;;;5.05;3.55;;;9.70;99.90;;;;;;4998375;28;20040;-72
2022/02/14 10:21:25;;;;;;;5.30;3.40;;;9.80;99.90;;;;;;5015549;28;20073;-72
2022/02/14 10:24:10;;;;;;;4.70;3.20;;;9.80;99.90;;;;;;5012322;28;20060;-72
2022/02/14 10:26:42;;;;;;;3.78;3.30;;;9.90;99.90;;;;;;5015149;28;20053;-72
2022/02/14 10:29:19;;;;;;;3.45;3.15;;;9.80;99.90;;;;;;4998047;28;20376;-72
2022/02/14 10:32:07;;;;;;;3.13;2.60;;;9.80;99.90;;;;;;4998745;28;20434;-72
2022/02/14 10:34:40;;;;;;;4.43;3.90;;;9.90;99.90;;;;;;5013175;28;20057;-72
2022/02/14 10:37:09;;;;;;;4.07;3.45;;;10.00;99.90;;;;;;5029781;28;20034;-72
2022/02/14 10:39:35;;;;;;;2.70;2.50;;;10.20;99.90;;;;;;5000743;28;20033;-72
2022/02/14 10:42:07;;;;;;;3.97;2.75;;;10.30;99.90;;;;;;4999757;28;20180;-72
2022/02/14 10:45:09;;;;;;;3.53;3.20;;;10.30;99.90;;;;;;5011216;28;20049;-73
2022/02/14 10:47:44;;;;;;;4.90;2.58;;;10.30;99.90;;;;;;5013002;28;20037;-72
2022/02/14 10:50:11;;;;;;;4.10;2.80;;;10.30;99.90;;;;;;5012728;28;20104;-72
2022/02/14 10:52:46;;;;;;;4.28;2.50;;;10.50;99.90;;;;;;5025870;28;20056;-72
2022/02/14 10:55:18;;;;;;;3.10;2.80;;;10.60;99.90;;;;;;5000390;28;20140;-72
2022/02/14 10:57:46;;;;;;;5.22;3.80;;;10.60;99.90;;;;;;5002744;28;20181;-72
2022/02/14 11:00:23;;;;;;;4.43;4.03;;;10.60;99.90;;;;;;5012435;28;20042;-72
2022/02/14 11:02:52;;;;;;;3.50;3.20;;;10.60;99.90;;;;;;5027825;28;20361;-72
2022/02/14 11:05:19;;;;;;;5.65;3.60;;;10.50;99.90;;;;;;5014382;28;20499;-72
2022/02/14 11:07:45;;;;;;;3.10;2.65;;;10.50;99.90;;;;;;5015884;28;20115;-72
2022/02/14 11:10:16;;;;;;;3.65;3.05;;;10.50;99.90;;;;;;5028994;28;20484;-73
2022/02/14 11:12:59;;;;;;;3.28;2.65;;;10.60;99.90;;;;;;5013590;28;20045;-74
2022/02/14 11:15:33;;;;;;;2.92;2.65;;;10.70;99.90;;;;;;5002991;28;20041;-73
2022/02/14 11:18:12;;;;;;;3.65;3.35;;;10.80;99.90;;;;;;5040273;28;20028;-73
2022/02/14 11:20:38;;;;;;;3.22;2.92;;;10.80;99.90;;;;;;5042746;28;20044;-73
2022/02/14 11:23:07;;;;;;;4.68;3.00;;;10.80;99.90;;;;;;5042053;28;20045;-73
2022/02/14 11:25:54;;;;;;;4.10;3.00;;;10.80;99.90;;;;;;5044272;28;20058;-73
2022/02/14 11:28:29;;;;;;;4.82;3.30;;;10.70;99.90;;;;;;5023114;28;20053;-73
2022/02/14 11:31:08;;;;;;;3.38;2.88;;;10.60;99.90;;;;;;5008595;28;20037;-74
2022/02/14 11:33:34;;;;;;;4.07;3.22;;;10.60;99.90;;;;;;5003818;28;20049;-73
2022/02/14 11:36:02;;;;;;;4.47;3.00;;;10.60;99.90;;;;;;5014254;28;20029;-73
2022/02/14 11:38:48;;;;;;;4.03;3.10;;;10.50;99.90;;;;;;5045299;28;20048;-73
2022/02/14 11:41:33;;;;;;;4.78;3.33;;;10.50;99.90;;;;;;5042316;28;20047;-74
2022/02/14 11:44:11;;;;;;;5.38;3.22;;;10.60;99.90;;;;;;5050704;28;20045;-74
2022/02/14 11:46:42;;;;;;;4.82;4.00;;;10.60;99.90;;;;;;5006490;28;20395;-73
2022/02/14 11:49:08;;;;;;;4.30;3.70;;;10.60;99.90;;;;;;5041586;28;20041;-74
2022/02/14 11:51:45;;;;;;;4.45;3.63;;;10.60;99.90;;;;;;5005650;28;20052;-74
2022/02/14 11:54:49;;;;;;;4.70;3.75;;;10.70;99.90;;;;;;5039346;28;20116;-73
2022/02/14 11:57:31;;;;;;;4.20;3.75;;;10.70;99.90;;;;;;4931410;29;20516;-73
2022/02/14 12:00:11;;;;;;;5.47;3.35;;;10.70;99.90;;;;;;4934676;29;20039;-74
2022/02/14 12:02:38;;;;;;;3.83;3.53;;;10.70;99.90;;;;;;5005485;28;20643;-74
2022/02/14 12:05:04;;;;;;;4.55;3.53;;;10.80;99.90;;;;;;5048465;28;20797;-74
2022/02/14 12:07:36;;;;;;;5.20;3.55;;;10.70;99.90;;;;;;5011156;28;20380;-74
2022/02/14 12:10:16;;;;;;;4.90;3.78;;;10.80;99.90;;;;;;5040428;28;20045;-74
2022/02/14 12:12:45;;;;;;;3.95;3.50;;;10.80;99.90;;;;;;5043855;28;20037;-74
2022/02/14 12:20:48;;;;;;;3.10;2.70;;;10.80;99.90;;;;;;5020154;28;20050;-74
2022/02/14 12:23:14;;;;;;;3.60;3.30;;;10.80;99.90;;;;;;5033874;28;20056;-74
2022/02/14 12:25:47;;;;;;;4.15;2.50;;;10.70;99.90;;;;;;5031357;28;20521;-74
2022/02/14 12:28:13;;;;;;;4.18;2.70;;;10.70;99.90;;;;;;5034837;28;20084;-74
2022/02/14 12:30:43;;;;;;;4.13;2.60;;;10.80;99.90;;;;;;5020668;28;21843;-74
2022/02/14 12:33:11;;;;;;;4.32;3.13;;;10.70;99.90;;;;;;5041342;28;20410;-74
2022/02/14 12:35:39;;;;;;;5.38;2.80;;;10.70;99.90;;;;;;5030324;28;20045;-74
2022/02/14 12:38:05;;;;;;;5.03;2.70;;;10.80;99.90;;;;;;5044856;28;20775;-74
2022/02/14 12:40:53;;;;;;;4.10;2.53;;;10.90;99.90;;;;;;5037961;28;20042;-74
2022/02/14 12:43:34;;;;;;;4.35;2.10;;;10.90;99.90;;;;;;5037547;28;20044;-74
2022/02/14 12:46:14;;;;;;;3.25;1.90;;;10.90;99.90;;;;;;5040895;28;20049;-74
2022/02/14 12:48:44;;;;;;;2.38;1.58;;;11.00;99.90;;;;;;5040926;28;20372;-74
2022/02/14 12:51:21;;;;;;;4.95;1.60;;;11.00;99.90;;;;;;5041676;28;20686;-74
2022/02/14 12:53:50;;;;;;;4.35;1.42;;;11.00;99.90;;;;;;5042568;28;20045;-74
2022/02/14 12:56:18;;;;;;;4.40;1.30;;;10.90;99.90;;;;;;5042555;28;20046;-73
2022/02/14 12:58:53;;;;;;;2.88;1.40;;;10.90;99.90;;;;;;5027644;28;20538;-73
2022/02/14 13:01:24;;;;;;;1.60;1.20;;;10.90;99.90;;;;;;5043805;28;20029;-73
2022/02/14 13:03:58;;;;;;;3.15;1.30;;;10.90;99.90;;;;;;5044247;28;20729;-73